createdAt,value
2022-08-24T00:01:55.701Z,4.25
2022-08-24T00:04:23.089Z,4.13
2022-08-24T00:06:51.227Z,4.40
2022-08-24T00:09:19.695Z,4.90
2022-08-24T00:11:47.603Z,4.15
2022-08-24T00:14:15.045Z,4.38
2022-08-24T00:16:42.722Z,4.50
2022-08-24T00:19:11.166Z,4.95
2022-08-24T00:21:38.415Z,4.10
2022-08-24T00:24:06.590Z,3.88
2022-08-24T00:26:35.329Z,4.80
2022-08-24T00:29:06.939Z,4.28
2022-08-24T00:31:35.533Z,4.22
2022-08-24T00:34:03.131Z,4.57
2022-08-24T00:36:30.381Z,4.03
2022-08-24T00:38:57.427Z,4.25
2022-08-24T00:41:24.945Z,4.80
2022-08-24T00:44:02.548Z,4.70
2022-08-24T00:47:17.581Z,4.35
2022-08-24T00:49:56.706Z,4.50
2022-08-24T00:52:27.977Z,5.07
2022-08-24T00:55:01.785Z,4.93
2022-08-24T00:57:42.500Z,4.70
2022-08-24T01:00:19.418Z,4.75
2022-08-24T01:02:52.839Z,4.85
2022-08-24T01:05:20.175Z,4.88
2022-08-24T01:07:49.444Z,4.13
2022-08-24T01:10:24.024Z,5.47
2022-08-24T01:13:06.057Z,5.10
2022-08-24T01:15:42.721Z,4.55
2022-08-24T01:18:34.848Z,5.07
2022-08-24T01:21:26.490Z,4.45
2022-08-24T01:24:04.547Z,5.07
2022-08-24T01:26:46.715Z,4.97
2022-08-24T01:34:14.348Z,5.10
2022-08-24T01:36:56.252Z,4.75
2022-08-24T01:39:33.915Z,5.60
2022-08-24T01:42:01.938Z,5.05
2022-08-24T01:44:34.199Z,5.30
2022-08-24T01:47:02.945Z,4.88
2022-08-24T01:49:48.434Z,5.25
2022-08-24T01:52:22.001Z,5.25
2022-08-24T01:54:50.108Z,5.45
2022-08-24T01:57:20.487Z,5.95
2022-08-24T01:59:50.156Z,5.25
2022-08-24T02:02:25.122Z,5.05
2022-08-24T02:04:52.251Z,4.82
2022-08-24T02:07:20.024Z,5.57
2022-08-24T02:09:48.548Z,5.38
2022-08-24T02:12:15.776Z,6.40
2022-08-24T02:14:42.887Z,6.30
2022-08-24T02:17:11.255Z,6.60
2022-08-24T02:19:38.360Z,6.10
2022-08-24T02:22:06.162Z,6.65
2022-08-24T02:24:33.679Z,7.03
2022-08-24T02:27:00.794Z,7.10
2022-08-24T02:29:28.248Z,6.65
2022-08-24T02:31:55.394Z,6.82
2022-08-24T02:34:22.431Z,6.97
2022-08-24T02:36:49.528Z,5.82
2022-08-24T02:39:16.572Z,6.13
2022-08-24T02:41:43.538Z,5.60
2022-08-24T02:44:10.609Z,6.72
2022-08-24T02:46:37.748Z,6.55
2022-08-24T02:49:10.527Z,5.65
2022-08-24T02:51:44.502Z,6.40
2022-08-24T02:54:18.083Z,5.60
2022-08-24T02:56:47.021Z,6.43
2022-08-24T02:59:14.182Z,5.93
2022-08-24T03:01:41.440Z,5.65
2022-08-24T03:04:09.042Z,5.45
2022-08-24T03:06:36.377Z,6.40
2022-08-24T03:09:04.084Z,6.43
2022-08-24T03:11:31.290Z,6.18
2022-08-24T03:13:59.246Z,5.85
2022-08-24T03:16:31.651Z,6.10
2022-08-24T03:21:26.855Z,6.32
2022-08-24T03:23:54.177Z,6.63
2022-08-24T03:26:21.418Z,6.63
2022-08-24T03:28:49.737Z,7.10
2022-08-24T03:31:18.035Z,6.43
2022-08-24T03:33:45.029Z,6.88
2022-08-24T03:36:14.254Z,7.07
2022-08-24T03:38:42.777Z,7.15
2022-08-24T03:41:11.243Z,7.35
2022-08-24T03:43:51.671Z,7.13
2022-08-24T03:46:23.962Z,7.35
2022-08-24T03:48:52.637Z,7.40
2022-08-24T03:51:25.828Z,6.70
2022-08-24T03:53:54.324Z,6.53
2022-08-24T03:56:21.636Z,6.60
2022-08-24T03:58:49.816Z,7.18
2022-08-24T04:01:17.862Z,6.43
2022-08-24T04:03:48.616Z,6.85
2022-08-24T04:06:19.188Z,6.75
2022-08-24T04:08:46.924Z,6.32
2022-08-24T04:11:21.122Z,7.93
2022-08-24T04:13:49.426Z,7.10
2022-08-24T04:16:20.322Z,6.43
2022-08-24T04:18:48.076Z,6.82
2022-08-24T04:21:28.172Z,8.13
2022-08-24T04:23:56.253Z,6.93
2022-08-24T04:26:44.915Z,7.68
2022-08-24T04:29:14.828Z,7.50
2022-08-24T04:31:43.314Z,7.70
2022-08-24T04:34:11.933Z,7.80
2022-08-24T04:36:42.512Z,7.97
2022-08-24T04:39:09.601Z,7.82
2022-08-24T04:41:37.356Z,7.53
2022-08-24T04:44:05.036Z,8.38
2022-08-24T04:46:32.211Z,9.20
2022-08-24T04:48:59.282Z,9.30
2022-08-24T04:51:26.764Z,9.52
2022-08-24T04:53:56.369Z,9.43
2022-08-24T04:56:25.069Z,10.20
2022-08-24T04:58:56.154Z,9.20
2022-08-24T05:01:28.818Z,9.20
2022-08-24T05:03:56.604Z,9.02
2022-08-24T05:06:27.721Z,9.18
2022-08-24T05:08:55.294Z,8.93
2022-08-24T05:11:23.313Z,10.18
2022-08-24T05:13:53.288Z,8.82
2022-08-24T05:16:20.714Z,9.50
2022-08-24T05:18:48.558Z,8.20
2022-08-24T05:21:21.699Z,8.32
2022-08-24T05:23:49.716Z,8.23
2022-08-24T05:26:26.217Z,9.25
2022-08-24T05:29:00.396Z,8.00
2022-08-24T05:31:30.538Z,8.25
2022-08-24T05:34:00.296Z,8.75
2022-08-24T05:36:34.439Z,7.38
2022-08-24T05:39:11.358Z,7.32
2022-08-24T05:41:43.998Z,7.82
2022-08-24T05:44:14.195Z,7.45
2022-08-24T05:46:41.753Z,7.18
2022-08-24T05:49:09.581Z,6.78
2022-08-24T05:51:37.467Z,7.07
2022-08-24T05:54:05.145Z,6.20
2022-08-24T05:56:32.469Z,6.10
2022-08-24T05:58:59.942Z,6.22
2022-08-24T06:01:28.371Z,6.35
2022-08-24T06:03:56.893Z,5.65
2022-08-24T06:06:24.994Z,6.28
2022-08-24T06:09:00.591Z,5.82
2022-08-24T06:11:37.952Z,6.22
2022-08-24T06:14:13.738Z,5.38
2022-08-24T06:16:55.104Z,6.15
2022-08-24T06:19:23.528Z,5.35
2022-08-24T06:21:55.072Z,5.60
2022-08-24T06:24:44.560Z,4.88
2022-08-24T06:27:23.974Z,5.25
2022-08-24T06:30:09.998Z,5.18
2022-08-24T06:32:39.322Z,5.70
2022-08-24T06:35:08.144Z,6.15
2022-08-24T06:37:38.744Z,6.35
2022-08-24T06:40:07.612Z,5.75
2022-08-24T06:42:34.838Z,6.22
2022-08-24T06:45:03.098Z,6.97
2022-08-24T06:47:30.216Z,6.72
2022-08-24T06:49:59.956Z,7.10
2022-08-24T06:52:26.973Z,6.93
2022-08-24T06:54:54.229Z,6.88
2022-08-24T06:57:21.637Z,7.78
2022-08-24T06:59:48.886Z,6.88
2022-08-24T07:02:18.886Z,7.28
2022-08-24T07:04:47.468Z,8.30
2022-08-24T07:07:14.881Z,7.80
2022-08-24T07:09:42.037Z,7.28
2022-08-24T07:12:09.184Z,7.53
2022-08-24T07:14:36.172Z,7.50
2022-08-24T07:17:03.395Z,7.82
2022-08-24T07:19:31.165Z,6.80
2022-08-24T07:21:59.041Z,6.57
2022-08-24T07:24:26.166Z,6.57
2022-08-24T07:26:53.630Z,7.00
2022-08-24T07:32:08.287Z,6.18
2022-08-24T07:34:45.273Z,7.13
2022-08-24T07:37:12.545Z,6.70
2022-08-24T07:42:40.493Z,6.63
2022-08-24T07:45:08.343Z,6.20
2022-08-24T07:47:41.064Z,6.88
2022-08-24T07:50:14.314Z,6.43
2022-08-24T07:52:42.640Z,6.10
2022-08-24T07:55:11.556Z,6.70
2022-08-24T07:57:40.747Z,6.65
2022-08-24T08:00:13.495Z,7.07
2022-08-24T08:02:47.685Z,6.53
2022-08-24T08:05:19.325Z,6.55
2022-08-24T08:07:51.514Z,7.28
2022-08-24T08:10:19.601Z,6.50
2022-08-24T08:12:49.626Z,6.60
2022-08-24T08:15:16.749Z,6.63
2022-08-24T08:17:43.748Z,6.80
2022-08-24T08:20:11.328Z,6.88
2022-08-24T08:22:57.229Z,6.13
2022-08-24T08:25:24.381Z,6.25
2022-08-24T08:27:51.465Z,6.30
2022-08-24T08:30:19.599Z,6.95
2022-08-24T08:32:46.631Z,5.80
2022-08-24T08:35:13.924Z,5.65
2022-08-24T08:37:41.360Z,6.20
2022-08-24T08:40:21.634Z,6.90
2022-08-24T08:42:59.859Z,5.40
2022-08-24T08:45:29.400Z,6.13
2022-08-24T08:48:24.452Z,6.45
2022-08-24T08:51:17.903Z,7.10
2022-08-24T08:54:13.251Z,5.95
2022-08-24T08:57:34.027Z,5.88
2022-08-24T09:00:25.177Z,6.72
2022-08-24T09:03:39.447Z,6.55
2022-08-24T09:06:32.939Z,6.95
2022-08-24T09:09:57.351Z,5.45
2022-08-24T09:13:03.982Z,5.45
2022-08-24T09:15:49.260Z,5.38
2022-08-24T09:19:03.595Z,5.15
2022-08-24T09:22:10.758Z,5.63
2022-08-24T09:24:47.755Z,5.68
2022-08-24T09:27:53.694Z,5.57
2022-08-24T09:30:49.451Z,5.38
2022-08-24T09:33:31.028Z,5.20
2022-08-24T09:36:10.938Z,5.70
2022-08-24T09:39:18.287Z,5.18
2022-08-24T09:42:35.672Z,5.40
2022-08-24T09:45:46.207Z,4.65
2022-08-24T09:48:53.436Z,5.50
2022-08-24T09:52:21.471Z,4.82
2022-08-24T09:54:57.410Z,5.43
2022-08-24T09:58:01.952Z,5.25
2022-08-24T10:00:39.386Z,5.25
2022-08-24T10:03:36.070Z,4.93
2022-08-24T10:07:04.909Z,5.05
2022-08-24T10:09:55.581Z,5.15
2022-08-24T10:12:25.287Z,5.00
2022-08-24T10:15:06.288Z,6.00
2022-08-24T10:18:01.662Z,5.07
2022-08-24T10:20:59.724Z,5.07
2022-08-24T10:23:37.487Z,4.40
2022-08-24T10:27:13.168Z,4.50
2022-08-24T10:30:29.668Z,4.60
2022-08-24T10:33:24.136Z,4.45
2022-08-24T10:36:22.408Z,4.35
2022-08-24T10:39:27.734Z,4.82
2022-08-24T10:43:25.876Z,4.60
2022-08-24T10:45:58.787Z,5.22
2022-08-24T10:48:33.307Z,4.53
2022-08-24T10:51:28.990Z,4.88
2022-08-24T10:53:57.322Z,4.95
2022-08-24T10:56:56.523Z,4.70
2022-08-24T10:59:57.616Z,4.90
2022-08-24T11:02:40.561Z,4.28
2022-08-24T11:05:17.272Z,4.53
2022-08-24T11:08:02.655Z,4.90
2022-08-24T11:10:39.983Z,4.97
2022-08-24T11:13:24.108Z,4.60
2022-08-24T11:16:04.011Z,5.47
2022-08-24T11:18:54.293Z,4.57
2022-08-24T11:21:48.286Z,3.80
2022-08-24T11:24:18.296Z,4.22
2022-08-24T11:27:09.155Z,4.43
2022-08-24T11:29:51.683Z,4.45
2022-08-24T11:32:40.768Z,4.32
2022-08-24T11:35:34.446Z,4.15
2022-08-24T11:38:18.453Z,4.82
2022-08-24T11:41:13.682Z,4.07
2022-08-24T11:44:18.058Z,4.65
2022-08-24T11:47:19.865Z,3.95
2022-08-24T11:50:30.911Z,4.28
2022-08-24T11:53:23.816Z,4.53
2022-08-24T11:56:36.577Z,4.47
2022-08-24T11:59:42.454Z,4.10
2022-08-24T12:02:35.550Z,3.65
2022-08-24T12:05:14.260Z,3.90
2022-08-24T12:08:05.553Z,4.82
2022-08-24T12:10:59.875Z,4.10
2022-08-24T12:13:52.827Z,4.25
2022-08-24T12:17:18.827Z,4.68
2022-08-24T12:19:55.780Z,4.68
2022-08-24T12:22:23.524Z,4.65
2022-08-24T12:25:24.851Z,4.57
2022-08-24T12:27:54.119Z,4.78
2022-08-24T12:30:22.478Z,4.70
2022-08-24T12:33:06.973Z,4.35
2022-08-24T12:35:52.098Z,4.72
2022-08-24T12:38:22.931Z,3.75
2022-08-24T12:41:00.190Z,4.00
2022-08-24T12:43:51.901Z,4.32
2022-08-24T12:46:24.534Z,4.25
2022-08-24T12:49:22.505Z,4.40
2022-08-24T12:51:58.461Z,4.38
2022-08-24T12:55:10.353Z,4.30
2022-08-24T12:58:31.058Z,4.45
2022-08-24T13:00:59.124Z,4.75
2022-08-24T13:03:41.724Z,4.10
2022-08-24T13:06:28.087Z,5.03
2022-08-24T13:09:28.037Z,4.55
2022-08-24T13:11:58.432Z,4.57
2022-08-24T13:14:30.046Z,4.47
2022-08-24T13:17:00.818Z,4.18
2022-08-24T13:19:31.615Z,5.10
2022-08-24T13:22:10.950Z,3.95
2022-08-24T13:25:18.902Z,4.25
2022-08-24T13:28:00.543Z,4.32
2022-08-24T13:33:10.088Z,4.75
2022-08-24T13:35:40.106Z,4.40
2022-08-24T13:38:25.767Z,4.32
2022-08-24T13:41:08.352Z,4.70
2022-08-24T13:43:36.953Z,3.78
2022-08-24T13:46:20.491Z,4.43
2022-08-24T13:49:19.767Z,4.82
2022-08-24T13:52:05.449Z,4.50
2022-08-24T13:54:53.308Z,4.28
2022-08-24T13:57:50.375Z,4.47
2022-08-24T14:00:45.497Z,5.10
2022-08-24T14:03:24.307Z,4.97
2022-08-24T14:06:20.588Z,4.75
2022-08-24T14:09:38.265Z,5.85
2022-08-24T14:12:30.519Z,5.40
2022-08-24T14:15:01.271Z,4.40
2022-08-24T14:17:58.110Z,4.77
2022-08-24T14:21:03.274Z,4.18
2022-08-24T14:25:04.488Z,4.10
2022-08-24T14:28:02.234Z,4.50
2022-08-24T14:30:39.478Z,4.15
2022-08-24T14:33:34.312Z,4.13
2022-08-24T14:38:12.459Z,4.13
2022-08-24T14:41:21.322Z,3.97
2022-08-24T14:44:00.197Z,4.82
2022-08-24T14:46:42.062Z,5.20
2022-08-24T14:49:15.537Z,4.43
2022-08-24T14:52:17.873Z,5.82
2022-08-24T14:55:43.324Z,4.28
2022-08-24T14:58:51.218Z,4.20
2022-08-24T15:01:48.857Z,4.15
2022-08-24T15:04:43.639Z,4.15
2022-08-24T15:07:36.390Z,4.60
2022-08-24T15:10:14.860Z,5.00
2022-08-24T15:13:10.641Z,4.50
2022-08-24T15:16:00.323Z,4.45
2022-08-24T15:19:11.573Z,4.47
2022-08-24T15:21:57.095Z,3.97
2022-08-24T15:24:50.679Z,3.85
2022-08-24T15:27:53.662Z,4.47
2022-08-24T15:30:24.242Z,4.95
2022-08-24T15:33:19.383Z,4.53
2022-08-24T15:36:04.445Z,4.57
2022-08-24T15:38:35.662Z,4.45
2022-08-24T15:41:42.331Z,4.40
2022-08-24T15:44:24.588Z,4.35
2022-08-24T15:47:02.766Z,5.10
2022-08-24T15:49:58.152Z,4.47
2022-08-24T15:52:53.224Z,4.03
2022-08-24T15:55:42.124Z,4.38
2022-08-24T15:58:27.165Z,4.32
2022-08-24T16:01:27.988Z,4.53
2022-08-24T16:03:58.902Z,3.97
2022-08-24T16:06:32.092Z,4.15
2022-08-24T16:09:19.602Z,3.70
2022-08-24T16:12:01.552Z,4.32
2022-08-24T16:14:40.768Z,4.35
2022-08-24T16:17:55.353Z,4.50
2022-08-24T16:20:25.272Z,3.88
2022-08-24T16:23:04.853Z,4.22
2022-08-24T16:25:46.039Z,4.68
2022-08-24T16:28:24.459Z,4.65
2022-08-24T16:31:07.308Z,4.38
2022-08-24T16:33:46.728Z,4.40
2022-08-24T16:36:20.809Z,5.00
2022-08-24T16:38:51.145Z,4.20
2022-08-24T16:41:22.552Z,4.00
2022-08-24T16:43:50.047Z,4.60
2022-08-24T16:46:23.960Z,4.47
2022-08-24T16:48:53.985Z,4.10
2022-08-24T16:51:24.505Z,3.85
2022-08-24T16:53:52.189Z,4.40
2022-08-24T16:56:19.884Z,4.10
2022-08-24T16:58:48.192Z,4.47
2022-08-24T17:01:16.765Z,5.97
2022-08-24T17:03:43.938Z,5.28
2022-08-24T17:06:15.312Z,4.63
2022-08-24T17:08:42.421Z,4.45
2022-08-24T17:11:09.495Z,4.15
2022-08-24T17:13:49.327Z,4.32
2022-08-24T17:16:18.903Z,5.80
2022-08-24T17:18:46.375Z,5.22
2022-08-24T17:21:13.661Z,5.95
2022-08-24T17:23:42.624Z,5.03
2022-08-24T17:26:20.892Z,5.30
2022-08-24T17:28:54.474Z,4.57
2022-08-24T17:31:24.740Z,4.65
2022-08-24T17:33:53.182Z,4.35
2022-08-24T17:36:25.402Z,5.57
2022-08-24T17:38:56.357Z,3.77
2022-08-24T17:41:27.256Z,4.67
2022-08-24T17:43:55.634Z,4.53
2022-08-24T17:46:23.965Z,4.20
2022-08-24T17:48:51.184Z,4.20
2022-08-24T17:51:18.491Z,4.30
2022-08-24T17:53:45.987Z,4.50
2022-08-24T17:56:15.352Z,3.95
2022-08-24T17:59:02.714Z,4.13
2022-08-24T18:01:30.814Z,4.88
2022-08-24T18:03:58.028Z,4.50
2022-08-24T18:06:27.615Z,5.70
2022-08-24T18:08:58.157Z,5.57
2022-08-24T18:11:26.204Z,4.50
2022-08-24T18:13:54.602Z,4.95
2022-08-24T18:16:25.191Z,5.38
2022-08-24T18:18:54.043Z,4.70
2022-08-24T18:21:22.125Z,6.57
2022-08-24T18:23:50.214Z,5.93
2022-08-24T18:26:28.094Z,6.85
2022-08-24T18:29:00.291Z,5.38
2022-08-24T18:31:29.482Z,5.47
2022-08-24T18:33:56.560Z,5.28
2022-08-24T18:36:23.698Z,6.45
2022-08-24T18:38:51.170Z,5.90
2022-08-24T18:41:18.218Z,6.03
2022-08-24T18:43:45.511Z,5.13
2022-08-24T18:46:13.228Z,4.60
2022-08-24T18:48:40.294Z,5.07
2022-08-24T18:51:07.505Z,5.43
2022-08-24T18:53:35.585Z,5.28
2022-08-24T18:56:09.228Z,4.60
2022-08-24T18:58:39.030Z,4.72
2022-08-24T19:01:07.008Z,4.85
2022-08-24T19:03:34.936Z,5.47
2022-08-24T19:06:01.935Z,5.03
2022-08-24T19:08:29.063Z,4.72
2022-08-24T19:10:56.377Z,5.22
2022-08-24T19:13:23.511Z,5.32
2022-08-24T19:15:51.081Z,5.50
2022-08-24T19:18:21.421Z,5.57
2022-08-24T19:20:52.005Z,6.40
2022-08-24T19:23:39.073Z,5.78
2022-08-24T19:26:06.648Z,4.53
2022-08-24T19:28:33.868Z,4.88
2022-08-24T19:31:27.322Z,4.72
2022-08-24T19:33:59.818Z,4.28
2022-08-24T19:36:32.467Z,4.85
2022-08-24T19:39:00.076Z,3.42
2022-08-24T19:41:36.525Z,3.53
2022-08-24T19:44:27.916Z,3.40
2022-08-24T19:46:59.223Z,3.95
2022-08-24T19:49:26.532Z,4.57
2022-08-24T19:51:54.155Z,3.47
2022-08-24T19:54:21.397Z,3.95
2022-08-24T19:56:51.622Z,3.17
2022-08-24T19:59:25.816Z,3.00
2022-08-24T20:01:53.089Z,3.13
2022-08-24T20:04:20.151Z,2.78
2022-08-24T20:06:47.691Z,4.35
2022-08-24T20:09:14.938Z,4.57
2022-08-24T20:11:42.452Z,3.22
2022-08-24T20:14:09.549Z,3.17
2022-08-24T20:16:44.078Z,3.55
2022-08-24T20:19:12.206Z,4.63
2022-08-24T20:21:39.834Z,3.90
2022-08-24T20:24:07.164Z,3.28
2022-08-24T20:26:43.104Z,3.28
2022-08-24T20:29:21.455Z,3.30
2022-08-24T20:31:50.713Z,3.85
2022-08-24T20:34:19.402Z,3.63
2022-08-24T20:36:50.692Z,3.50
2022-08-24T20:39:23.609Z,4.07
2022-08-24T20:41:52.560Z,3.30
2022-08-24T20:44:20.129Z,3.53
2022-08-24T20:46:50.725Z,3.25
2022-08-24T20:49:22.596Z,3.40
2022-08-24T20:51:49.892Z,3.53
2022-08-24T20:54:17.082Z,3.75
2022-08-24T20:56:45.011Z,3.20
2022-08-24T20:59:14.797Z,3.45
2022-08-24T21:01:46.050Z,3.30
2022-08-24T21:04:14.490Z,3.42
2022-08-24T21:06:43.904Z,3.42
2022-08-24T21:09:14.027Z,2.97
2022-08-24T21:11:43.254Z,3.00
2022-08-24T21:14:10.387Z,3.90
2022-08-24T21:16:40.802Z,3.40
2022-08-24T21:19:10.843Z,3.45
2022-08-24T21:21:41.820Z,3.42
2022-08-24T21:24:09.706Z,3.17
2022-08-24T21:26:37.841Z,3.08
2022-08-24T21:29:07.687Z,3.42
2022-08-24T21:31:35.571Z,2.90
2022-08-24T21:34:24.747Z,3.65
2022-08-24T21:36:54.232Z,2.80
2022-08-24T21:39:21.588Z,3.00
2022-08-24T21:41:54.452Z,3.40
2022-08-24T21:44:21.699Z,3.50
2022-08-24T21:46:50.218Z,3.40
2022-08-24T21:49:17.314Z,4.03
2022-08-24T21:51:44.296Z,3.05
2022-08-24T21:54:11.247Z,3.38
2022-08-24T21:56:39.198Z,3.55
2022-08-24T21:59:07.090Z,3.33
2022-08-24T22:01:36.698Z,2.83
2022-08-24T22:04:05.025Z,3.75
2022-08-24T22:06:33.555Z,4.60
2022-08-24T22:09:01.812Z,4.20
2022-08-24T22:11:29.823Z,3.00
2022-08-24T22:13:57.379Z,4.38
2022-08-24T22:16:25.173Z,3.45
2022-08-24T22:18:52.240Z,3.60
2022-08-24T22:21:24.524Z,3.65
2022-08-24T22:23:51.711Z,3.78
2022-08-24T22:26:18.776Z,3.05
2022-08-24T22:28:45.836Z,3.53
2022-08-24T22:31:23.344Z,3.28
2022-08-24T22:33:51.295Z,3.38
2022-08-24T22:36:19.079Z,3.30
2022-08-24T22:38:46.634Z,4.30
2022-08-24T22:41:14.727Z,3.50
2022-08-24T22:44:00.625Z,3.53
2022-08-24T22:46:29.128Z,3.60
2022-08-24T22:48:56.430Z,3.67
2022-08-24T22:51:23.987Z,3.83
2022-08-24T22:53:51.619Z,3.25
2022-08-24T22:56:26.111Z,3.33
2022-08-24T22:58:55.622Z,3.78
2022-08-24T23:01:35.254Z,3.53
2022-08-24T23:04:05.929Z,4.63
2022-08-24T23:06:33.232Z,3.50
2022-08-24T23:09:00.776Z,3.70
2022-08-24T23:11:28.086Z,3.88
2022-08-24T23:13:57.721Z,4.20
2022-08-24T23:16:27.305Z,3.53
2022-08-24T23:19:13.721Z,3.58
2022-08-24T23:21:41.018Z,5.05
2022-08-24T23:24:11.973Z,3.72
2022-08-24T23:26:40.565Z,3.78
2022-08-24T23:29:10.481Z,3.50
2022-08-24T23:31:37.956Z,4.15
2022-08-24T23:34:07.196Z,3.88
2022-08-24T23:36:36.087Z,4.30
2022-08-24T23:39:06.863Z,3.83
2022-08-24T23:41:38.413Z,4.43
2022-08-24T23:44:10.600Z,4.47
2022-08-24T23:46:38.837Z,5.82
2022-08-24T23:49:07.424Z,4.60
2022-08-24T23:51:34.754Z,4.55
2022-08-24T23:54:01.991Z,4.22
2022-08-24T23:56:35.216Z,4.85
2022-08-24T23:59:08.737Z,4.82
